Paso Robles, California
Current Conditions -  °F | °C
As of 4:53 PM on Wednesday 17 Dec 2014 (Local Time) from KPRB Reporting Station
Overcast Overcast  
Wind Chill: 12°   Ceiling: 8500
Heat Index: 12°   Visibility: 10mi
Dew Point:   Wind: 0mph
Humidity: 75%   Direction: NA
Pressure: 30.08"   Gusts: NA
Location:  35.67°N, 120.63°W
Report Text: KPRB 180053Z AUTO 00000KT 10SM OVC085 12/08 A3008 RMK AO2 SLP187 T01220078 TSNO
Loading
Personal Weather Stations






























Interactive Weather Map New forecast layout! Learn more

10-Day Weather Forecast

Advertisements
Track Severe Weather on mobile